sensor_id;sensor_type;location;lat;lon;timestamp;P1;durP1;ratioP1;P2;durP2;ratioP2
16512;SDS011;8369;48.030;11.598;2023-06-10T00:00:06;6.47;;;5.88;;
16512;SDS011;8369;48.030;11.598;2023-06-10T00:02:33;7.57;;;6.78;;
16512;SDS011;8369;48.030;11.598;2023-06-10T00:05:00;7.03;;;6.32;;
16512;SDS011;8369;48.030;11.598;2023-06-10T00:07:29;10.32;;;7.20;;
16512;SDS011;8369;48.030;11.598;2023-06-10T00:09:55;7.38;;;6.65;;
16512;SDS011;8369;48.030;11.598;2023-06-10T00:12:25;6.68;;;6.05;;
16512;SDS011;8369;48.030;11.598;2023-06-10T00:14:54;6.70;;;6.03;;
16512;SDS011;8369;48.030;11.598;2023-06-10T00:17:23;7.00;;;6.20;;
16512;SDS011;8369;48.030;11.598;2023-06-10T00:19:50;8.52;;;6.30;;
16512;SDS011;8369;48.030;11.598;2023-06-10T00:22:18;7.07;;;6.37;;
16512;SDS011;8369;48.030;11.598;2023-06-10T00:24:47;7.13;;;5.95;;
16512;SDS011;8369;48.030;11.598;2023-06-10T00:27:16;7.25;;;6.55;;
16512;SDS011;8369;48.030;11.598;2023-06-10T00:29:49;6.72;;;6.03;;
16512;SDS011;8369;48.030;11.598;2023-06-10T00:32:23;6.57;;;5.93;;
16512;SDS011;8369;48.030;11.598;2023-06-10T00:35:02;7.27;;;6.53;;
16512;SDS011;8369;48.030;11.598;2023-06-10T00:37:28;7.33;;;6.63;;
16512;SDS011;8369;48.030;11.598;2023-06-10T00:39:57;6.67;;;5.87;;
16512;SDS011;8369;48.030;11.598;2023-06-10T00:42:25;7.47;;;6.77;;
16512;SDS011;8369;48.030;11.598;2023-06-10T00:44:54;7.37;;;6.50;;
16512;SDS011;8369;48.030;11.598;2023-06-10T00:47:23;8.40;;;6.68;;
16512;SDS011;8369;48.030;11.598;2023-06-10T00:49:53;8.00;;;7.07;;
16512;SDS011;8369;48.030;11.598;2023-06-10T00:52:20;7.63;;;6.83;;
16512;SDS011;8369;48.030;11.598;2023-06-10T00:54:54;8.70;;;7.17;;
16512;SDS011;8369;48.030;11.598;2023-06-10T00:57:24;7.53;;;6.83;;
16512;SDS011;8369;48.030;11.598;2023-06-10T00:59:54;7.03;;;6.37;;
16512;SDS011;8369;48.030;11.598;2023-06-10T01:02:21;9.80;;;7.00;;
16512;SDS011;8369;48.030;11.598;2023-06-10T01:04:50;7.90;;;7.10;;
16512;SDS011;8369;48.030;11.598;2023-06-10T01:12:58;8.63;;;7.27;;
16512;SDS011;8369;48.030;11.598;2023-06-10T01:15:29;10.87;;;7.10;;
16512;SDS011;8369;48.030;11.598;2023-06-10T01:18:09;8.13;;;7.30;;
16512;SDS011;8369;48.030;11.598;2023-06-10T01:20:38;8.67;;;7.10;;
16512;SDS011;8369;48.030;11.598;2023-06-10T01:23:10;8.03;;;7.23;;
16512;SDS011;8369;48.030;11.598;2023-06-10T01:25:40;9.20;;;7.43;;
16512;SDS011;8369;48.030;11.598;2023-06-10T01:31:18;9.67;;;6.87;;
16512;SDS011;8369;48.030;11.598;2023-06-10T01:33:48;7.53;;;6.73;;
16512;SDS011;8369;48.030;11.598;2023-06-10T01:36:20;7.20;;;6.50;;
16512;SDS011;8369;48.030;11.598;2023-06-10T01:38:51;7.13;;;6.53;;
16512;SDS011;8369;48.030;11.598;2023-06-10T01:41:19;8.00;;;7.20;;
16512;SDS011;8369;48.030;11.598;2023-06-10T01:43:46;7.73;;;6.83;;
16512;SDS011;8369;48.030;11.598;2023-06-10T01:46:18;7.20;;;6.50;;
16512;SDS011;8369;48.030;11.598;2023-06-10T01:48:50;7.17;;;6.47;;
16512;SDS011;8369;48.030;11.598;2023-06-10T01:51:17;7.70;;;6.97;;
16512;SDS011;8369;48.030;11.598;2023-06-10T01:53:43;8.07;;;7.27;;
16512;SDS011;8369;48.030;11.598;2023-06-10T01:56:17;8.90;;;7.10;;
16512;SDS011;8369;48.030;11.598;2023-06-10T01:58:48;8.23;;;7.33;;
16512;SDS011;8369;48.030;11.598;2023-06-10T02:01:19;8.73;;;7.00;;
16512;SDS011;8369;48.030;11.598;2023-06-10T02:03:45;7.80;;;7.00;;
16512;SDS011;8369;48.030;11.598;2023-06-10T02:06:20;7.80;;;6.97;;
16512;SDS011;8369;48.030;11.598;2023-06-10T02:08:46;7.77;;;6.97;;
16512;SDS011;8369;48.030;11.598;2023-06-10T02:11:17;7.67;;;6.87;;
16512;SDS011;8369;48.030;11.598;2023-06-10T02:13:46;7.90;;;7.10;;
16512;SDS011;8369;48.030;11.598;2023-06-10T02:16:17;7.57;;;6.77;;
16512;SDS011;8369;48.030;11.598;2023-06-10T02:18:44;7.60;;;6.90;;
16512;SDS011;8369;48.030;11.598;2023-06-10T02:21:13;7.73;;;6.87;;
16512;SDS011;8369;48.030;11.598;2023-06-10T02:23:40;7.97;;;6.40;;
16512;SDS011;8369;48.030;11.598;2023-06-10T02:26:10;7.50;;;6.70;;
16512;SDS011;8369;48.030;11.598;2023-06-10T02:28:42;7.30;;;6.50;;
16512;SDS011;8369;48.030;11.598;2023-06-10T02:31:12;7.57;;;6.77;;
16512;SDS011;8369;48.030;11.598;2023-06-10T02:33:43;7.83;;;7.10;;
16512;SDS011;8369;48.030;11.598;2023-06-10T02:36:12;10.50;;;6.53;;
16512;SDS011;8369;48.030;11.598;2023-06-10T02:38:49;7.50;;;6.70;;
16512;SDS011;8369;48.030;11.598;2023-06-10T02:41:18;8.03;;;7.23;;
16512;SDS011;8369;48.030;11.598;2023-06-10T02:43:57;7.50;;;6.80;;
16512;SDS011;8369;48.030;11.598;2023-06-10T02:46:31;7.40;;;6.67;;
16512;SDS011;8369;48.030;11.598;2023-06-10T02:48:59;7.03;;;6.33;;
16512;SDS011;8369;48.030;11.598;2023-06-10T02:51:27;7.30;;;6.60;;
16512;SDS011;8369;48.030;11.598;2023-06-10T02:53:57;7.87;;;7.00;;
16512;SDS011;8369;48.030;11.598;2023-06-10T02:56:28;8.43;;;7.63;;
16512;SDS011;8369;48.030;11.598;2023-06-10T02:59:08;8.03;;;7.23;;
16512;SDS011;8369;48.030;11.598;2023-06-10T03:01:42;10.30;;;7.30;;
16512;SDS011;8369;48.030;11.598;2023-06-10T03:04:14;7.90;;;7.10;;
16512;SDS011;8369;48.030;11.598;2023-06-10T03:06:41;8.67;;;7.13;;
16512;SDS011;8369;48.030;11.598;2023-06-10T03:09:12;7.17;;;6.47;;
16512;SDS011;8369;48.030;11.598;2023-06-10T03:11:38;7.03;;;6.37;;
16512;SDS011;8369;48.030;11.598;2023-06-10T03:14:08;7.30;;;6.60;;
16512;SDS011;8369;48.030;11.598;2023-06-10T03:16:40;7.40;;;6.67;;
16512;SDS011;8369;48.030;11.598;2023-06-10T03:19:10;9.03;;;7.10;;
16512;SDS011;8369;48.030;11.598;2023-06-10T03:21:36;7.23;;;6.53;;
16512;SDS011;8369;48.030;11.598;2023-06-10T03:24:11;8.07;;;7.20;;
16512;SDS011;8369;48.030;11.598;2023-06-10T03:26:44;7.53;;;6.73;;
16512;SDS011;8369;48.030;11.598;2023-06-10T03:29:14;7.80;;;7.00;;
16512;SDS011;8369;48.030;11.598;2023-06-10T03:31:40;7.83;;;6.73;;
16512;SDS011;8369;48.030;11.598;2023-06-10T03:34:15;8.73;;;7.20;;
16512;SDS011;8369;48.030;11.598;2023-06-10T03:36:44;8.97;;;7.00;;
16512;SDS011;8369;48.030;11.598;2023-06-10T03:39:20;7.60;;;6.77;;
16512;SDS011;8369;48.030;11.598;2023-06-10T03:41:49;19.77;;;13.70;;
16512;SDS011;8369;48.030;11.598;2023-06-10T03:44:21;11.17;;;9.23;;
16512;SDS011;8369;48.030;11.598;2023-06-10T03:46:56;9.00;;;7.33;;
16512;SDS011;8369;48.030;11.598;2023-06-10T03:49:22;8.30;;;7.40;;
16512;SDS011;8369;48.030;11.598;2023-06-10T03:51:53;10.37;;;7.40;;
16512;SDS011;8369;48.030;11.598;2023-06-10T03:54:22;9.10;;;7.23;;
16512;SDS011;8369;48.030;11.598;2023-06-10T03:56:49;8.00;;;7.10;;
16512;SDS011;8369;48.030;11.598;2023-06-10T03:59:18;7.80;;;7.07;;
16512;SDS011;8369;48.030;11.598;2023-06-10T04:01:47;9.17;;;7.20;;
16512;SDS011;8369;48.030;11.598;2023-06-10T04:04:20;8.23;;;7.03;;
16512;SDS011;8369;48.030;11.598;2023-06-10T04:06:46;8.73;;;7.80;;
16512;SDS011;8369;48.030;11.598;2023-06-10T04:09:16;9.43;;;7.53;;
16512;SDS011;8369;48.030;11.598;2023-06-10T04:11:45;10.03;;;7.27;;
16512;SDS011;8369;48.030;11.598;2023-06-10T04:14:22;8.63;;;7.53;;
16512;SDS011;8369;48.030;11.598;2023-06-10T04:16:49;10.67;;;7.73;;
16512;SDS011;8369;48.030;11.598;2023-06-10T04:19:15;12.73;;;7.37;;
16512;SDS011;8369;48.030;11.598;2023-06-10T04:21:45;8.90;;;7.57;;
16512;SDS011;8369;48.030;11.598;2023-06-10T04:24:12;8.17;;;7.00;;
16512;SDS011;8369;48.030;11.598;2023-06-10T04:26:41;10.80;;;7.33;;
16512;SDS011;8369;48.030;11.598;2023-06-10T04:29:07;10.97;;;7.50;;
16512;SDS011;8369;48.030;11.598;2023-06-10T04:31:34;11.17;;;7.87;;
16512;SDS011;8369;48.030;11.598;2023-06-10T04:34:03;12.30;;;7.17;;
16512;SDS011;8369;48.030;11.598;2023-06-10T04:36:35;9.67;;;7.27;;
16512;SDS011;8369;48.030;11.598;2023-06-10T04:39:02;8.23;;;6.73;;
16512;SDS011;8369;48.030;11.598;2023-06-10T04:41:34;8.57;;;7.30;;
16512;SDS011;8369;48.030;11.598;2023-06-10T04:44:04;10.40;;;7.37;;
16512;SDS011;8369;48.030;11.598;2023-06-10T04:46:34;8.47;;;7.57;;
16512;SDS011;8369;48.030;11.598;2023-06-10T04:49:08;8.60;;;7.70;;
16512;SDS011;8369;48.030;11.598;2023-06-10T04:51:54;9.40;;;7.93;;
16512;SDS011;8369;48.030;11.598;2023-06-10T04:54:21;7.97;;;7.17;;
16512;SDS011;8369;48.030;11.598;2023-06-10T04:56:50;8.23;;;7.43;;
16512;SDS011;8369;48.030;11.598;2023-06-10T04:59:27;8.10;;;7.30;;
16512;SDS011;8369;48.030;11.598;2023-06-10T05:01:53;7.63;;;6.93;;
16512;SDS011;8369;48.030;11.598;2023-06-10T05:04:25;8.67;;;7.70;;
16512;SDS011;8369;48.030;11.598;2023-06-10T05:06:53;10.20;;;8.20;;
16512;SDS011;8369;48.030;11.598;2023-06-10T05:09:29;15.27;;;9.50;;
16512;SDS011;8369;48.030;11.598;2023-06-10T05:11:59;9.70;;;8.70;;
16512;SDS011;8369;48.030;11.598;2023-06-10T05:14:28;8.87;;;7.97;;
16512;SDS011;8369;48.030;11.598;2023-06-10T05:17:05;10.00;;;9.00;;
16512;SDS011;8369;48.030;11.598;2023-06-10T05:19:31;9.43;;;8.53;;
16512;SDS011;8369;48.030;11.598;2023-06-10T05:22:12;10.13;;;8.70;;
16512;SDS011;8369;48.030;11.598;2023-06-10T05:24:41;10.77;;;9.53;;
16512;SDS011;8369;48.030;11.598;2023-06-10T05:27:14;11.70;;;8.57;;
16512;SDS011;8369;48.030;11.598;2023-06-10T05:29:58;10.57;;;9.10;;
16512;SDS011;8369;48.030;11.598;2023-06-10T05:32:27;12.43;;;9.00;;
16512;SDS011;8369;48.030;11.598;2023-06-10T05:34:53;11.07;;;9.47;;
16512;SDS011;8369;48.030;11.598;2023-06-10T05:37:30;10.27;;;9.15;;
16512;SDS011;8369;48.030;11.598;2023-06-10T05:40:03;10.35;;;8.93;;
16512;SDS011;8369;48.030;11.598;2023-06-10T05:42:39;10.02;;;8.55;;
16512;SDS011;8369;48.030;11.598;2023-06-10T05:45:28;11.35;;;9.30;;
16512;SDS011;8369;48.030;11.598;2023-06-10T05:48:23;14.25;;;10.23;;
16512;SDS011;8369;48.030;11.598;2023-06-10T05:50:59;10.63;;;9.27;;
16512;SDS011;8369;48.030;11.598;2023-06-10T05:53:29;14.02;;;9.00;;
16512;SDS011;8369;48.030;11.598;2023-06-10T05:56:22;10.63;;;9.48;;
16512;SDS011;8369;48.030;11.598;2023-06-10T05:59:36;12.23;;;9.20;;
16512;SDS011;8369;48.030;11.598;2023-06-10T06:02:03;11.85;;;9.63;;
16512;SDS011;8369;48.030;11.598;2023-06-10T06:04:30;13.10;;;10.35;;
16512;SDS011;8369;48.030;11.598;2023-06-10T06:06:59;13.38;;;10.45;;
16512;SDS011;8369;48.030;11.598;2023-06-10T06:09:26;17.20;;;10.13;;
16512;SDS011;8369;48.030;11.598;2023-06-10T06:11:52;10.77;;;8.75;;
16512;SDS011;8369;48.030;11.598;2023-06-10T06:14:25;8.90;;;8.00;;
16512;SDS011;8369;48.030;11.598;2023-06-10T06:16:51;12.13;;;9.65;;
16512;SDS011;8369;48.030;11.598;2023-06-10T06:19:20;10.30;;;9.20;;
16512;SDS011;8369;48.030;11.598;2023-06-10T06:21:48;10.52;;;8.82;;
16512;SDS011;8369;48.030;11.598;2023-06-10T06:24:15;11.02;;;9.88;;
16512;SDS011;8369;48.030;11.598;2023-06-10T06:26:42;12.10;;;9.65;;
16512;SDS011;8369;48.030;11.598;2023-06-10T06:29:08;10.98;;;9.35;;
16512;SDS011;8369;48.030;11.598;2023-06-10T06:31:38;11.23;;;9.60;;
16512;SDS011;8369;48.030;11.598;2023-06-10T06:34:04;10.50;;;9.23;;
16512;SDS011;8369;48.030;11.598;2023-06-10T06:36:30;12.35;;;9.68;;
16512;SDS011;8369;48.030;11.598;2023-06-10T06:39:03;10.05;;;8.98;;
16512;SDS011;8369;48.030;11.598;2023-06-10T06:41:29;12.57;;;9.95;;
16512;SDS011;8369;48.030;11.598;2023-06-10T06:43:56;10.73;;;8.75;;
16512;SDS011;8369;48.030;11.598;2023-06-10T06:46:22;12.18;;;10.00;;
16512;SDS011;8369;48.030;11.598;2023-06-10T06:48:49;10.88;;;9.10;;
16512;SDS011;8369;48.030;11.598;2023-06-10T06:51:24;10.60;;;8.82;;
16512;SDS011;8369;48.030;11.598;2023-06-10T06:53:50;10.43;;;9.23;;
16512;SDS011;8369;48.030;11.598;2023-06-10T06:56:19;11.55;;;9.75;;
16512;SDS011;8369;48.030;11.598;2023-06-10T06:58:46;9.57;;;8.57;;
16512;SDS011;8369;48.030;11.598;2023-06-10T07:01:12;11.13;;;8.98;;
16512;SDS011;8369;48.030;11.598;2023-06-10T07:03:40;9.95;;;8.40;;
16512;SDS011;8369;48.030;11.598;2023-06-10T07:06:07;11.93;;;8.55;;
16512;SDS011;8369;48.030;11.598;2023-06-10T07:08:40;9.88;;;8.88;;
16512;SDS011;8369;48.030;11.598;2023-06-10T07:11:10;10.95;;;8.68;;
16512;SDS011;8369;48.030;11.598;2023-06-10T07:13:38;9.52;;;8.52;;
16512;SDS011;8369;48.030;11.598;2023-06-10T07:19:22;8.77;;;7.88;;
16512;SDS011;8369;48.030;11.598;2023-06-10T07:25:36;10.35;;;7.25;;
16512;SDS011;8369;48.030;11.598;2023-06-10T07:28:59;9.48;;;8.18;;
16512;SDS011;8369;48.030;11.598;2023-06-10T07:32:04;9.38;;;8.38;;
16512;SDS011;8369;48.030;11.598;2023-06-10T07:35:37;7.95;;;7.15;;
16512;SDS011;8369;48.030;11.598;2023-06-10T07:38:03;8.52;;;7.40;;
16512;SDS011;8369;48.030;11.598;2023-06-10T07:40:29;10.10;;;7.82;;
16512;SDS011;8369;48.030;11.598;2023-06-10T07:42:55;9.27;;;8.27;;
16512;SDS011;8369;48.030;11.598;2023-06-10T07:45:33;10.65;;;7.25;;
16512;SDS011;8369;48.030;11.598;2023-06-10T07:47:59;8.82;;;6.93;;
16512;SDS011;8369;48.030;11.598;2023-06-10T07:50:26;8.95;;;6.88;;
16512;SDS011;8369;48.030;11.598;2023-06-10T07:52:52;7.10;;;6.38;;
16512;SDS011;8369;48.030;11.598;2023-06-10T07:55:18;6.32;;;5.57;;
16512;SDS011;8369;48.030;11.598;2023-06-10T07:57:45;6.28;;;5.40;;
16512;SDS011;8369;48.030;11.598;2023-06-10T08:00:14;6.72;;;5.35;;
16512;SDS011;8369;48.030;11.598;2023-06-10T08:02:40;6.75;;;5.43;;
16512;SDS011;8369;48.030;11.598;2023-06-10T08:05:07;6.00;;;5.40;;
16512;SDS011;8369;48.030;11.598;2023-06-10T08:07:36;8.25;;;6.15;;
16512;SDS011;8369;48.030;11.598;2023-06-10T08:10:02;6.88;;;5.50;;
16512;SDS011;8369;48.030;11.598;2023-06-10T08:12:35;6.65;;;6.00;;
16512;SDS011;8369;48.030;11.598;2023-06-10T08:15:05;7.38;;;5.97;;
16512;SDS011;8369;48.030;11.598;2023-06-10T08:17:32;7.32;;;5.97;;
16512;SDS011;8369;48.030;11.598;2023-06-10T08:19:58;6.15;;;5.32;;
16512;SDS011;8369;48.030;11.598;2023-06-10T08:22:24;6.18;;;5.57;;
16512;SDS011;8369;48.030;11.598;2023-06-10T08:24:50;5.15;;;4.65;;
16512;SDS011;8369;48.030;11.598;2023-06-10T08:27:17;5.05;;;4.47;;
16512;SDS011;8369;48.030;11.598;2023-06-10T08:29:50;7.75;;;4.60;;
16512;SDS011;8369;48.030;11.598;2023-06-10T08:32:16;5.32;;;4.45;;
16512;SDS011;8369;48.030;11.598;2023-06-10T08:34:43;4.97;;;4.47;;
16512;SDS011;8369;48.030;11.598;2023-06-10T08:37:11;5.20;;;4.63;;
16512;SDS011;8369;48.030;11.598;2023-06-10T08:39:37;5.40;;;4.90;;
16512;SDS011;8369;48.030;11.598;2023-06-10T08:42:11;6.07;;;4.82;;
16512;SDS011;8369;48.030;11.598;2023-06-10T08:44:49;5.03;;;4.55;;
16512;SDS011;8369;48.030;11.598;2023-06-10T08:47:24;4.80;;;4.38;;
16512;SDS011;8369;48.030;11.598;2023-06-10T08:49:52;5.85;;;5.25;;
16512;SDS011;8369;48.030;11.598;2023-06-10T08:52:24;8.75;;;4.95;;
16512;SDS011;8369;48.030;11.598;2023-06-10T08:57:23;4.82;;;4.32;;
16512;SDS011;8369;48.030;11.598;2023-06-10T08:59:50;4.95;;;4.45;;
16512;SDS011;8369;48.030;11.598;2023-06-10T09:02:21;5.13;;;4.63;;
16512;SDS011;8369;48.030;11.598;2023-06-10T09:04:49;4.82;;;4.35;;
16512;SDS011;8369;48.030;11.598;2023-06-10T09:07:15;4.43;;;4.00;;
16512;SDS011;8369;48.030;11.598;2023-06-10T09:09:42;4.85;;;4.45;;
16512;SDS011;8369;48.030;11.598;2023-06-10T09:12:13;4.72;;;4.20;;
16512;SDS011;8369;48.030;11.598;2023-06-10T09:14:40;4.63;;;4.13;;
16512;SDS011;8369;48.030;11.598;2023-06-10T09:17:07;4.50;;;4.07;;
16512;SDS011;8369;48.030;11.598;2023-06-10T09:19:33;4.82;;;4.30;;
16512;SDS011;8369;48.030;11.598;2023-06-10T09:22:01;4.57;;;4.18;;
16512;SDS011;8369;48.030;11.598;2023-06-10T09:24:30;4.03;;;3.67;;
16512;SDS011;8369;48.030;11.598;2023-06-10T09:27:06;4.75;;;4.25;;
16512;SDS011;8369;48.030;11.598;2023-06-10T09:29:52;4.30;;;3.90;;
16512;SDS011;8369;48.030;11.598;2023-06-10T09:32:19;6.18;;;4.07;;
16512;SDS011;8369;48.030;11.598;2023-06-10T09:34:49;4.55;;;4.15;;
16512;SDS011;8369;48.030;11.598;2023-06-10T09:37:20;4.13;;;3.72;;
16512;SDS011;8369;48.030;11.598;2023-06-10T09:40:06;4.22;;;3.83;;
16512;SDS011;8369;48.030;11.598;2023-06-10T09:42:37;4.82;;;4.35;;
16512;SDS011;8369;48.030;11.598;2023-06-10T09:45:04;4.20;;;3.65;;
16512;SDS011;8369;48.030;11.598;2023-06-10T09:47:34;4.40;;;3.83;;
16512;SDS011;8369;48.030;11.598;2023-06-10T09:50:03;4.30;;;3.90;;
16512;SDS011;8369;48.030;11.598;2023-06-10T09:52:32;4.38;;;3.97;;
16512;SDS011;8369;48.030;11.598;2023-06-10T09:54:59;4.38;;;3.97;;
16512;SDS011;8369;48.030;11.598;2023-06-10T09:57:26;4.75;;;3.67;;
16512;SDS011;8369;48.030;11.598;2023-06-10T10:00:08;4.32;;;3.92;;
16512;SDS011;8369;48.030;11.598;2023-06-10T10:02:47;4.63;;;4.18;;
16512;SDS011;8369;48.030;11.598;2023-06-10T10:05:20;4.38;;;3.88;;
16512;SDS011;8369;48.030;11.598;2023-06-10T10:07:47;4.30;;;3.90;;
16512;SDS011;8369;48.030;11.598;2023-06-10T10:10:14;4.40;;;3.97;;
16512;SDS011;8369;48.030;11.598;2023-06-10T10:12:41;4.10;;;3.67;;
16512;SDS011;8369;48.030;11.598;2023-06-10T10:15:09;5.18;;;4.38;;
16512;SDS011;8369;48.030;11.598;2023-06-10T10:18:01;4.80;;;4.30;;
16512;SDS011;8369;48.030;11.598;2023-06-10T10:20:46;4.97;;;4.47;;
16512;SDS011;8369;48.030;11.598;2023-06-10T10:23:14;5.43;;;4.47;;
16512;SDS011;8369;48.030;11.598;2023-06-10T10:25:49;5.00;;;4.45;;
16512;SDS011;8369;48.030;11.598;2023-06-10T10:28:19;4.43;;;4.03;;
16512;SDS011;8369;48.030;11.598;2023-06-10T10:30:50;6.03;;;4.00;;
16512;SDS011;8369;48.030;11.598;2023-06-10T10:33:19;5.97;;;4.25;;
16512;SDS011;8369;48.030;11.598;2023-06-10T10:35:52;4.78;;;4.30;;
16512;SDS011;8369;48.030;11.598;2023-06-10T10:38:19;4.80;;;4.40;;
16512;SDS011;8369;48.030;11.598;2023-06-10T10:40:48;4.53;;;4.10;;
16512;SDS011;8369;48.030;11.598;2023-06-10T10:43:14;4.70;;;4.28;;
16512;SDS011;8369;48.030;11.598;2023-06-10T10:45:41;5.50;;;4.22;;
16512;SDS011;8369;48.030;11.598;2023-06-10T10:48:12;4.15;;;3.75;;
16512;SDS011;8369;48.030;11.598;2023-06-10T10:50:39;5.00;;;4.40;;
16512;SDS011;8369;48.030;11.598;2023-06-10T10:53:08;4.68;;;4.18;;
16512;SDS011;8369;48.030;11.598;2023-06-10T10:55:36;4.60;;;4.20;;
16512;SDS011;8369;48.030;11.598;2023-06-10T10:58:05;4.30;;;3.90;;
16512;SDS011;8369;48.030;11.598;2023-06-10T11:05:35;4.63;;;3.70;;
16512;SDS011;8369;48.030;11.598;2023-06-10T11:08:02;5.05;;;3.63;;
16512;SDS011;8369;48.030;11.598;2023-06-10T11:10:32;4.55;;;4.03;;
16512;SDS011;8369;48.030;11.598;2023-06-10T11:12:59;4.05;;;3.65;;
16512;SDS011;8369;48.030;11.598;2023-06-10T11:15:27;3.83;;;3.50;;
16512;SDS011;8369;48.030;11.598;2023-06-10T11:20:50;4.88;;;4.30;;
16512;SDS011;8369;48.030;11.598;2023-06-10T11:33:48;4.25;;;3.53;;
16512;SDS011;8369;48.030;11.598;2023-06-10T11:36:24;5.57;;;4.18;;
16512;SDS011;8369;48.030;11.598;2023-06-10T11:39:12;4.03;;;3.63;;
16512;SDS011;8369;48.030;11.598;2023-06-10T11:41:38;4.55;;;4.13;;
16512;SDS011;8369;48.030;11.598;2023-06-10T11:44:09;4.03;;;3.63;;
16512;SDS011;8369;48.030;11.598;2023-06-10T11:46:36;3.85;;;3.55;;
16512;SDS011;8369;48.030;11.598;2023-06-10T11:49:03;4.10;;;3.70;;
16512;SDS011;8369;48.030;11.598;2023-06-10T11:51:37;6.35;;;3.42;;
16512;SDS011;8369;48.030;11.598;2023-06-10T11:54:06;3.92;;;3.30;;
16512;SDS011;8369;48.030;11.598;2023-06-10T11:56:35;5.82;;;3.20;;
16512;SDS011;8369;48.030;11.598;2023-06-10T11:59:03;3.00;;;2.80;;
16512;SDS011;8369;48.030;11.598;2023-06-10T12:01:31;3.85;;;3.45;;
16512;SDS011;8369;48.030;11.598;2023-06-10T12:04:03;4.22;;;3.25;;
16512;SDS011;8369;48.030;11.598;2023-06-10T12:06:43;12.52;;;3.20;;
16512;SDS011;8369;48.030;11.598;2023-06-10T12:09:15;4.50;;;3.00;;
16512;SDS011;8369;48.030;11.598;2023-06-10T12:11:52;3.47;;;3.00;;
16512;SDS011;8369;48.030;11.598;2023-06-10T12:14:55;3.50;;;3.17;;
16512;SDS011;8369;48.030;11.598;2023-06-10T12:19:59;3.75;;;3.20;;
16512;SDS011;8369;48.030;11.598;2023-06-10T12:22:26;3.67;;;3.08;;
16512;SDS011;8369;48.030;11.598;2023-06-10T12:24:59;3.28;;;2.97;;
16512;SDS011;8369;48.030;11.598;2023-06-10T12:27:27;3.47;;;3.17;;
16512;SDS011;8369;48.030;11.598;2023-06-10T12:29:54;3.40;;;3.05;;
16512;SDS011;8369;48.030;11.598;2023-06-10T12:32:21;3.28;;;2.97;;
16512;SDS011;8369;48.030;11.598;2023-06-10T12:35:01;3.65;;;3.28;;
16512;SDS011;8369;48.030;11.598;2023-06-10T12:37:31;4.03;;;3.13;;
16512;SDS011;8369;48.030;11.598;2023-06-10T12:40:02;10.48;;;3.47;;
16512;SDS011;8369;48.030;11.598;2023-06-10T12:42:30;5.07;;;2.83;;
16512;SDS011;8369;48.030;11.598;2023-06-10T12:44:57;3.85;;;3.30;;
16512;SDS011;8369;48.030;11.598;2023-06-10T12:47:35;3.65;;;3.33;;
16512;SDS011;8369;48.030;11.598;2023-06-10T12:50:04;3.20;;;2.90;;
16512;SDS011;8369;48.030;11.598;2023-06-10T12:52:30;3.00;;;2.80;;
16512;SDS011;8369;48.030;11.598;2023-06-10T12:54:57;4.03;;;2.50;;
16512;SDS011;8369;48.030;11.598;2023-06-10T12:57:23;3.22;;;2.85;;
16512;SDS011;8369;48.030;11.598;2023-06-10T12:59:51;4.38;;;3.13;;
16512;SDS011;8369;48.030;11.598;2023-06-10T13:02:18;3.72;;;3.15;;
16512;SDS011;8369;48.030;11.598;2023-06-10T13:04:45;3.08;;;2.78;;
16512;SDS011;8369;48.030;11.598;2023-06-10T13:07:17;3.53;;;3.15;;
16512;SDS011;8369;48.030;11.598;2023-06-10T13:09:43;3.42;;;3.13;;
16512;SDS011;8369;48.030;11.598;2023-06-10T13:12:12;3.20;;;2.90;;
16512;SDS011;8369;48.030;11.598;2023-06-10T13:14:38;3.20;;;2.90;;
16512;SDS011;8369;48.030;11.598;2023-06-10T13:17:04;4.50;;;3.40;;
16512;SDS011;8369;48.030;11.598;2023-06-10T13:19:33;3.42;;;3.03;;
16512;SDS011;8369;48.030;11.598;2023-06-10T13:21:59;3.40;;;3.10;;
16512;SDS011;8369;48.030;11.598;2023-06-10T13:24:25;3.63;;;3.33;;
16512;SDS011;8369;48.030;11.598;2023-06-10T13:26:52;3.83;;;3.50;;
16512;SDS011;8369;48.030;11.598;2023-06-10T13:29:20;3.85;;;3.55;;
16512;SDS011;8369;48.030;11.598;2023-06-10T13:31:47;5.63;;;4.75;;
16512;SDS011;8369;48.030;11.598;2023-06-10T13:34:13;4.70;;;4.20;;
16512;SDS011;8369;48.030;11.598;2023-06-10T13:36:47;4.80;;;3.95;;
16512;SDS011;8369;48.030;11.598;2023-06-10T13:42:08;4.90;;;4.32;;
16512;SDS011;8369;48.030;11.598;2023-06-10T13:44:35;4.40;;;3.97;;
16512;SDS011;8369;48.030;11.598;2023-06-10T13:47:05;4.60;;;4.20;;
16512;SDS011;8369;48.030;11.598;2023-06-10T13:49:31;4.65;;;4.15;;
16512;SDS011;8369;48.030;11.598;2023-06-10T13:51:58;4.82;;;4.40;;
16512;SDS011;8369;48.030;11.598;2023-06-10T13:54:26;5.03;;;4.30;;
16512;SDS011;8369;48.030;11.598;2023-06-10T13:56:53;6.40;;;4.00;;
16512;SDS011;8369;48.030;11.598;2023-06-10T13:59:19;4.10;;;3.70;;
16512;SDS011;8369;48.030;11.598;2023-06-10T14:01:46;4.53;;;4.13;;
16512;SDS011;8369;48.030;11.598;2023-06-10T14:04:12;4.00;;;3.60;;
16512;SDS011;8369;48.030;11.598;2023-06-10T14:06:38;3.92;;;3.53;;
16512;SDS011;8369;48.030;11.598;2023-06-10T14:09:05;4.47;;;4.05;;
16512;SDS011;8369;48.030;11.598;2023-06-10T14:11:32;3.70;;;3.40;;
16512;SDS011;8369;48.030;11.598;2023-06-10T14:13:58;3.80;;;3.50;;
16512;SDS011;8369;48.030;11.598;2023-06-10T14:16:25;4.85;;;3.63;;
16512;SDS011;8369;48.030;11.598;2023-06-10T14:18:52;4.88;;;3.47;;
16512;SDS011;8369;48.030;11.598;2023-06-10T14:21:18;5.03;;;3.10;;
16512;SDS011;8369;48.030;11.598;2023-06-10T14:23:44;3.50;;;3.20;;
16512;SDS011;8369;48.030;11.598;2023-06-10T14:26:10;3.40;;;3.10;;
16512;SDS011;8369;48.030;11.598;2023-06-10T14:28:40;3.30;;;3.00;;
16512;SDS011;8369;48.030;11.598;2023-06-10T14:31:06;3.90;;;3.50;;
16512;SDS011;8369;48.030;11.598;2023-06-10T14:33:32;4.60;;;3.17;;
16512;SDS011;8369;48.030;11.598;2023-06-10T14:35:59;3.55;;;3.25;;
16512;SDS011;8369;48.030;11.598;2023-06-10T14:38:25;4.28;;;3.20;;
16512;SDS011;8369;48.030;11.598;2023-06-10T14:40:51;3.65;;;3.20;;
16512;SDS011;8369;48.030;11.598;2023-06-10T14:43:17;3.70;;;3.35;;
16512;SDS011;8369;48.030;11.598;2023-06-10T14:45:43;4.32;;;3.05;;
16512;SDS011;8369;48.030;11.598;2023-06-10T14:48:13;3.33;;;3.03;;
16512;SDS011;8369;48.030;11.598;2023-06-10T14:50:39;3.33;;;3.03;;
16512;SDS011;8369;48.030;11.598;2023-06-10T14:53:07;4.93;;;3.40;;
16512;SDS011;8369;48.030;11.598;2023-06-10T14:55:33;3.05;;;2.75;;
16512;SDS011;8369;48.030;11.598;2023-06-10T14:57:58;3.35;;;3.05;;
16512;SDS011;8369;48.030;11.598;2023-06-10T15:00:24;3.65;;;3.28;;
16512;SDS011;8369;48.030;11.598;2023-06-10T15:02:52;3.70;;;3.40;;
16512;SDS011;8369;48.030;11.598;2023-06-10T15:05:20;3.85;;;3.50;;
16512;SDS011;8369;48.030;11.598;2023-06-10T15:07:46;3.38;;;3.08;;
16512;SDS011;8369;48.030;11.598;2023-06-10T15:10:18;5.28;;;3.50;;
16512;SDS011;8369;48.030;11.598;2023-06-10T15:12:46;3.90;;;3.50;;
16512;SDS011;8369;48.030;11.598;2023-06-10T15:15:13;3.92;;;3.58;;
16512;SDS011;8369;48.030;11.598;2023-06-10T15:17:42;3.20;;;2.90;;
16512;SDS011;8369;48.030;11.598;2023-06-10T15:20:08;4.05;;;3.70;;
16512;SDS011;8369;48.030;11.598;2023-06-10T15:22:37;3.80;;;3.20;;
16512;SDS011;8369;48.030;11.598;2023-06-10T15:25:05;4.13;;;3.72;;
16512;SDS011;8369;48.030;11.598;2023-06-10T15:27:32;6.18;;;3.70;;
16512;SDS011;8369;48.030;11.598;2023-06-10T15:29:57;4.35;;;3.95;;
16512;SDS011;8369;48.030;11.598;2023-06-10T15:32:23;4.53;;;3.95;;
16512;SDS011;8369;48.030;11.598;2023-06-10T15:34:50;4.32;;;3.92;;
16512;SDS011;8369;48.030;11.598;2023-06-10T15:37:20;6.43;;;3.95;;
16512;SDS011;8369;48.030;11.598;2023-06-10T15:39:47;4.10;;;3.70;;
16512;SDS011;8369;48.030;11.598;2023-06-10T15:42:15;4.00;;;3.60;;
16512;SDS011;8369;48.030;11.598;2023-06-10T15:44:41;4.10;;;3.47;;